createdAt,value
2022-12-22T00:00:41.004Z,10.13
2022-12-22T00:03:32.999Z,11.02
2022-12-22T00:06:18.092Z,9.20
2022-12-22T00:09:05.669Z,13.65
2022-12-22T00:11:51.260Z,16.77
2022-12-22T00:14:36.235Z,16.38
2022-12-22T00:17:24.475Z,17.65
2022-12-22T00:20:15.057Z,13.43
2022-12-22T00:23:03.432Z,14.90
2022-12-22T00:25:48.422Z,16.48
2022-12-22T00:28:33.848Z,15.98
2022-12-22T00:31:19.104Z,22.75
2022-12-22T00:34:04.205Z,19.63
2022-12-22T00:36:49.685Z,18.98
2022-12-22T00:39:34.601Z,18.80
2022-12-22T00:42:19.820Z,19.50
2022-12-22T00:45:04.893Z,19.05
2022-12-22T00:47:50.250Z,17.92
2022-12-22T00:50:35.537Z,20.75
2022-12-22T00:53:22.839Z,25.63
2022-12-22T00:56:08.402Z,21.33
2022-12-22T00:58:54.316Z,19.77
2022-12-22T01:01:39.599Z,14.98
2022-12-22T01:04:24.547Z,15.60
2022-12-22T01:07:09.540Z,16.50
2022-12-22T01:09:54.695Z,16.77
2022-12-22T01:12:42.685Z,20.35
2022-12-22T01:15:33.496Z,20.40
2022-12-22T01:18:18.816Z,16.88
2022-12-22T01:21:04.247Z,15.65
2022-12-22T01:23:49.826Z,8.45
2022-12-22T01:26:34.721Z,15.82
2022-12-22T01:29:19.959Z,16.65
2022-12-22T01:32:04.873Z,17.42
2022-12-22T01:34:50.101Z,17.60
2022-12-22T01:37:35.547Z,15.10
2022-12-22T01:40:20.467Z,18.00
2022-12-22T01:43:05.419Z,17.55
2022-12-22T01:45:54.784Z,17.20
2022-12-22T01:48:50.932Z,14.27
2022-12-22T01:51:46.005Z,14.05
2022-12-22T01:54:33.583Z,16.10
2022-12-22T01:57:18.757Z,14.23
2022-12-22T02:00:04.604Z,14.82
2022-12-22T02:02:51.224Z,13.17
2022-12-22T02:08:23.055Z,12.95
2022-12-22T02:11:20.578Z,11.60
2022-12-22T02:14:33.771Z,10.73
2022-12-22T02:17:39.866Z,12.30
2022-12-22T02:20:54.314Z,12.50
2022-12-22T02:23:45.313Z,10.00
2022-12-22T02:26:50.951Z,11.82
2022-12-22T02:29:51.062Z,9.00
2022-12-22T02:32:36.069Z,10.75
2022-12-22T02:35:21.138Z,11.50
2022-12-22T02:38:15.151Z,11.00
2022-12-22T02:41:35.394Z,11.82
2022-12-22T02:44:40.977Z,11.85
2022-12-22T02:47:30.671Z,12.35
2022-12-22T02:50:46.627Z,13.50
2022-12-22T02:53:34.405Z,12.90
2022-12-22T02:56:23.249Z,10.82
2022-12-22T02:59:08.861Z,11.20
2022-12-22T03:01:54.620Z,11.10
2022-12-22T03:04:39.869Z,10.73
2022-12-22T03:07:25.431Z,11.38
2022-12-22T03:10:10.548Z,9.60
2022-12-22T03:12:56.052Z,11.55
2022-12-22T03:15:41.129Z,10.30
2022-12-22T03:18:28.600Z,11.80
2022-12-22T03:21:14.100Z,12.68
2022-12-22T03:23:59.192Z,8.85
2022-12-22T03:26:25.846Z,10.27
2022-12-22T03:28:52.402Z,11.18
2022-12-22T03:31:19.232Z,10.20
2022-12-22T03:33:45.821Z,5.75
2022-12-22T03:36:12.386Z,6.28
2022-12-22T03:38:38.975Z,10.50
2022-12-22T03:41:05.836Z,8.90
2022-12-22T03:43:51.123Z,8.30
2022-12-22T03:46:33.417Z,8.02
2022-12-22T03:49:11.040Z,7.18
2022-12-22T03:51:47.096Z,12.27
2022-12-22T03:54:17.117Z,12.77
2022-12-22T03:56:44.358Z,13.20
2022-12-22T03:59:11.536Z,12.77
2022-12-22T04:01:41.360Z,12.35
2022-12-22T04:04:08.584Z,11.88
2022-12-22T04:06:35.153Z,11.70
2022-12-22T04:09:01.808Z,12.15
2022-12-22T04:11:47.102Z,11.20
2022-12-22T04:14:13.676Z,12.63
2022-12-22T04:16:40.400Z,11.85
2022-12-22T04:19:08.153Z,11.15
2022-12-22T04:21:34.765Z,11.02
2022-12-22T04:24:01.678Z,10.88
2022-12-22T04:26:28.527Z,9.85
2022-12-22T04:28:55.845Z,9.50
2022-12-22T04:31:22.964Z,9.10
2022-12-22T04:33:49.998Z,8.98
2022-12-22T04:36:17.172Z,9.40
2022-12-22T04:38:43.893Z,9.23
2022-12-22T04:41:11.046Z,9.45
2022-12-22T04:43:37.686Z,9.13
2022-12-22T04:46:04.790Z,8.52
2022-12-22T04:48:31.727Z,8.95
2022-12-22T04:51:00.165Z,8.93
2022-12-22T04:53:28.555Z,8.82
2022-12-22T04:55:58.744Z,9.07
2022-12-22T04:58:25.468Z,9.38
2022-12-22T05:00:52.537Z,9.45
2022-12-22T05:03:19.443Z,9.18
2022-12-22T05:05:46.082Z,8.80
2022-12-22T05:08:13.183Z,9.77
2022-12-22T05:10:40.084Z,9.00
2022-12-22T05:13:07.123Z,9.85
2022-12-22T05:15:36.078Z,9.05
2022-12-22T05:18:03.632Z,9.43
2022-12-22T05:20:30.968Z,9.30
2022-12-22T05:22:59.117Z,10.20
2022-12-22T05:25:29.849Z,9.40
2022-12-22T05:27:58.065Z,9.82
2022-12-22T05:30:24.874Z,10.40
2022-12-22T05:32:51.452Z,10.07
2022-12-22T05:35:18.055Z,10.68
2022-12-22T05:37:44.739Z,10.07
2022-12-22T05:40:13.641Z,9.82
2022-12-22T05:42:40.369Z,9.48
2022-12-22T05:45:15.094Z,7.43
2022-12-22T05:47:43.204Z,9.60
2022-12-22T05:50:11.660Z,10.18
2022-12-22T05:52:38.538Z,9.13
2022-12-22T05:55:05.636Z,9.98
2022-12-22T05:57:33.375Z,9.00
2022-12-22T06:00:02.569Z,7.45
2022-12-22T06:02:29.399Z,6.90
2022-12-22T06:04:56.143Z,8.32
2022-12-22T06:07:23.166Z,9.65
2022-12-22T06:09:49.753Z,8.10
2022-12-22T06:12:16.432Z,9.40
2022-12-22T06:14:43.016Z,9.15
2022-12-22T06:17:09.686Z,11.52
2022-12-22T06:19:36.274Z,10.95
2022-12-22T06:22:02.897Z,13.85
2022-12-22T06:24:29.468Z,11.82
2022-12-22T06:26:56.052Z,12.05
2022-12-22T06:29:22.706Z,9.82
2022-12-22T06:31:49.793Z,9.63
2022-12-22T06:34:19.058Z,9.13
2022-12-22T06:36:46.593Z,10.18
2022-12-22T06:39:14.507Z,10.27
2022-12-22T06:42:00.268Z,10.05
2022-12-22T06:44:27.167Z,10.30
2022-12-22T06:46:54.210Z,8.88
2022-12-22T06:49:21.075Z,9.80
2022-12-22T06:51:48.997Z,10.52
2022-12-22T06:54:19.473Z,10.38
2022-12-22T06:56:49.282Z,7.53
2022-12-22T06:59:15.870Z,10.20
2022-12-22T07:01:42.959Z,9.30
2022-12-22T07:04:10.620Z,7.68
2022-12-22T07:06:37.657Z,6.88
2022-12-22T07:09:04.534Z,8.75
2022-12-22T07:11:31.187Z,7.28
2022-12-22T07:13:57.739Z,6.97
2022-12-22T07:16:24.360Z,9.20
2022-12-22T07:18:50.962Z,7.90
2022-12-22T07:21:17.586Z,9.43
2022-12-22T07:23:44.224Z,8.15
2022-12-22T07:26:11.406Z,7.97
2022-12-22T07:28:40.428Z,7.97
2022-12-22T07:31:07.912Z,9.23
2022-12-22T07:33:34.662Z,10.25
2022-12-22T07:36:04.231Z,9.65
2022-12-22T07:38:36.106Z,9.80
2022-12-22T07:41:05.574Z,10.07
2022-12-22T07:43:32.438Z,9.32
2022-12-22T07:45:59.031Z,9.23
2022-12-22T07:48:44.096Z,8.30
2022-12-22T07:51:10.696Z,10.82
2022-12-22T07:53:40.139Z,10.50
2022-12-22T07:56:07.268Z,6.90
2022-12-22T07:58:33.950Z,9.30
2022-12-22T08:01:01.687Z,8.10
2022-12-22T08:03:28.804Z,6.80
2022-12-22T08:05:55.451Z,8.23
2022-12-22T08:08:22.052Z,9.95
2022-12-22T08:10:48.687Z,7.25
2022-12-22T08:13:15.454Z,6.75
2022-12-22T08:15:42.228Z,7.43
2022-12-22T08:18:08.791Z,7.90
2022-12-22T08:20:35.472Z,6.85
2022-12-22T08:23:02.043Z,8.15
2022-12-22T08:25:30.309Z,6.75
2022-12-22T08:27:58.199Z,6.10
2022-12-22T08:30:24.921Z,5.22
2022-12-22T08:32:52.061Z,8.85
2022-12-22T08:35:18.919Z,8.25
2022-12-22T08:37:47.978Z,6.53
2022-12-22T08:40:19.763Z,5.78
2022-12-22T08:42:47.759Z,7.05
2022-12-22T08:45:14.403Z,8.18
2022-12-22T08:47:41.388Z,7.28
2022-12-22T08:50:08.563Z,7.95
2022-12-22T08:52:35.179Z,6.38
2022-12-22T08:55:01.830Z,6.18
2022-12-22T08:57:28.742Z,7.93
2022-12-22T08:59:55.402Z,8.38
2022-12-22T09:02:22.456Z,8.93
2022-12-22T09:04:49.170Z,9.05
2022-12-22T09:07:16.233Z,9.45
2022-12-22T09:09:42.996Z,7.88
2022-12-22T09:12:09.721Z,8.70
2022-12-22T09:14:36.376Z,7.07
2022-12-22T09:17:03.043Z,7.18
2022-12-22T09:19:29.630Z,7.18
2022-12-22T09:21:56.437Z,7.45
2022-12-22T09:24:23.006Z,7.22
2022-12-22T09:26:49.579Z,7.00
2022-12-22T09:29:17.080Z,7.03
2022-12-22T09:31:44.008Z,7.07
2022-12-22T09:34:17.126Z,9.40
2022-12-22T09:36:44.777Z,6.90
2022-12-22T09:39:11.393Z,7.15
2022-12-22T09:41:43.488Z,8.27
2022-12-22T09:44:27.192Z,6.50
2022-12-22T09:46:57.353Z,8.18
2022-12-22T09:49:24.301Z,8.35
2022-12-22T09:52:00.188Z,8.88
2022-12-22T09:54:27.951Z,8.85
2022-12-22T09:56:54.582Z,9.95
2022-12-22T09:59:21.744Z,8.65
2022-12-22T10:02:09.916Z,9.13
2022-12-22T10:04:45.181Z,7.72
2022-12-22T10:07:30.059Z,8.57
2022-12-22T10:09:56.844Z,7.82
2022-12-22T10:12:26.025Z,9.07
2022-12-22T10:14:54.259Z,8.38
2022-12-22T10:17:25.488Z,6.93
2022-12-22T10:19:54.862Z,7.05
2022-12-22T10:22:31.877Z,8.23
2022-12-22T10:25:02.347Z,6.75
2022-12-22T10:27:31.942Z,8.13
2022-12-22T10:30:26.092Z,7.45
2022-12-22T10:33:12.116Z,7.95
2022-12-22T10:35:52.959Z,7.60
2022-12-22T10:38:22.334Z,8.20
2022-12-22T10:40:56.568Z,6.45
2022-12-22T10:43:40.685Z,5.57
2022-12-22T10:46:07.686Z,7.53
2022-12-22T10:48:37.343Z,7.35
2022-12-22T10:51:10.341Z,6.68
2022-12-22T10:53:45.917Z,7.72
2022-12-22T10:56:25.140Z,7.53
2022-12-22T10:59:21.195Z,7.88
2022-12-22T11:01:49.316Z,9.45
2022-12-22T11:04:27.701Z,8.77
2022-12-22T11:06:58.605Z,6.93
2022-12-22T11:09:35.395Z,8.38
2022-12-22T11:12:14.400Z,7.03
2022-12-22T11:15:16.057Z,10.52
2022-12-22T11:17:48.048Z,8.18
2022-12-22T11:20:24.649Z,9.60
2022-12-22T11:23:13.766Z,8.82
2022-12-22T11:25:46.576Z,12.77
2022-12-22T11:28:33.742Z,10.70
2022-12-22T11:31:34.710Z,9.77
2022-12-22T11:34:30.462Z,9.07
2022-12-22T11:37:06.636Z,6.45
2022-12-22T11:42:05.526Z,6.03
2022-12-22T11:44:38.611Z,5.60
2022-12-22T11:47:14.619Z,8.07
2022-12-22T11:51:01.542Z,6.68
2022-12-22T11:53:01.989Z,7.32
2022-12-22T11:58:23.355Z,7.30
2022-12-22T12:01:16.340Z,6.18
2022-12-22T12:04:05.518Z,7.30
2022-12-22T12:06:50.930Z,7.50
2022-12-22T12:09:48.885Z,7.80
2022-12-22T12:13:06.217Z,8.55
2022-12-22T12:15:51.334Z,7.28
2022-12-22T12:18:27.864Z,7.43
2022-12-22T12:21:27.149Z,5.97
2022-12-22T12:24:03.966Z,7.05
2022-12-22T12:27:05.896Z,6.38
2022-12-22T12:29:41.027Z,7.28
2022-12-22T12:32:23.882Z,6.88
2022-12-22T12:35:00.439Z,6.60
2022-12-22T12:37:36.879Z,7.43
2022-12-22T12:40:27.818Z,5.15
2022-12-22T12:42:57.296Z,6.38
2022-12-22T12:45:36.816Z,5.95
2022-12-22T12:48:24.670Z,5.97
2022-12-22T12:50:55.365Z,5.40
2022-12-22T12:53:23.963Z,5.05
2022-12-22T12:55:50.512Z,4.25
2022-12-22T12:58:35.203Z,5.93
2022-12-22T13:01:03.853Z,4.97
2022-12-22T13:04:01.749Z,4.80
2022-12-22T13:09:39.894Z,5.22
2022-12-22T13:12:11.661Z,5.10
2022-12-22T13:14:57.199Z,6.00
2022-12-22T14:58:38.717Z,4.63
2022-12-22T15:01:28.579Z,5.00
2022-12-22T15:04:04.469Z,4.60
2022-12-22T15:06:40.845Z,4.50
2022-12-22T15:09:13.109Z,4.47
2022-12-22T15:11:44.394Z,5.18
2022-12-22T15:14:17.541Z,4.80
2022-12-22T15:16:45.494Z,4.82
2022-12-22T15:19:17.289Z,4.80
2022-12-22T15:21:44.155Z,4.53
2022-12-22T15:24:18.311Z,4.50
2022-12-22T15:26:49.610Z,4.85
2022-12-22T15:29:16.139Z,4.65
2022-12-22T15:31:43.556Z,4.75
2022-12-22T15:34:25.233Z,5.07
2022-12-22T15:36:52.554Z,5.15
2022-12-22T15:39:20.672Z,5.10
2022-12-22T15:41:48.672Z,5.80
2022-12-22T15:44:15.645Z,6.32
2022-12-22T15:46:49.039Z,5.25
2022-12-22T15:49:20.415Z,5.75
2022-12-22T15:51:53.742Z,5.95
2022-12-22T15:54:21.115Z,5.22
2022-12-22T15:56:52.323Z,6.22
2022-12-22T15:59:27.520Z,6.35
2022-12-22T16:02:00.540Z,6.53
2022-12-22T16:04:28.633Z,6.20
2022-12-22T16:06:55.474Z,6.63
2022-12-22T16:09:25.364Z,6.28
2022-12-22T16:11:52.116Z,6.45
2022-12-22T16:14:21.084Z,6.93
2022-12-22T16:16:48.489Z,5.50
2022-12-22T16:19:17.417Z,6.97
2022-12-22T16:21:47.538Z,7.15
2022-12-22T16:24:31.606Z,7.43
2022-12-22T16:26:58.628Z,6.50
2022-12-22T16:29:26.338Z,7.07
2022-12-22T16:31:53.767Z,7.05
2022-12-22T16:34:20.561Z,6.78
2022-12-22T16:36:47.072Z,7.03
2022-12-22T16:39:14.720Z,7.85
2022-12-22T16:41:43.853Z,6.93
2022-12-22T16:44:20.025Z,6.88
2022-12-22T16:51:52.711Z,6.50
2022-12-22T16:54:19.287Z,6.50
2022-12-22T16:56:47.146Z,7.90
2022-12-22T16:59:14.089Z,7.18
2022-12-22T17:01:55.280Z,7.45
2022-12-22T17:04:28.449Z,6.97
2022-12-22T17:06:56.513Z,7.50
2022-12-22T17:09:31.516Z,6.80
2022-12-22T17:12:00.682Z,6.95
2022-12-22T17:14:31.975Z,6.95
2022-12-22T17:16:58.824Z,7.40
2022-12-22T17:19:25.410Z,8.02
2022-12-22T17:21:53.510Z,7.13
2022-12-22T17:24:27.764Z,7.18
2022-12-22T17:26:56.684Z,7.07
2022-12-22T17:29:25.606Z,6.68
2022-12-22T17:31:56.659Z,6.38
2022-12-22T17:34:23.575Z,6.55
2022-12-22T17:36:50.606Z,5.90
2022-12-22T17:39:21.326Z,6.00
2022-12-22T17:41:54.298Z,6.55
2022-12-22T17:44:25.080Z,6.30
2022-12-22T17:46:52.128Z,6.88
2022-12-22T17:49:20.223Z,6.68
2022-12-22T17:51:47.183Z,6.65
2022-12-22T17:54:31.857Z,6.47
2022-12-22T17:57:02.129Z,6.70
2022-12-22T17:59:30.561Z,6.10
2022-12-22T18:01:57.273Z,6.97
2022-12-22T18:04:24.020Z,7.05
2022-12-22T18:06:50.591Z,6.45
2022-12-22T18:09:23.238Z,9.00
2022-12-22T18:11:50.704Z,9.70
2022-12-22T18:14:18.624Z,8.93
2022-12-22T18:16:45.316Z,7.82
2022-12-22T18:19:12.059Z,7.82
2022-12-22T18:21:38.719Z,7.70
2022-12-22T18:24:05.774Z,7.38
2022-12-22T18:26:32.652Z,8.93
2022-12-22T18:28:59.896Z,8.57
2022-12-22T18:31:26.721Z,7.55
2022-12-22T18:33:53.630Z,7.63
2022-12-22T18:36:30.732Z,7.97
2022-12-22T18:38:59.352Z,7.18
2022-12-22T18:41:26.819Z,7.40
2022-12-22T18:43:53.595Z,7.05
2022-12-22T18:46:20.858Z,6.82
2022-12-22T18:48:48.621Z,6.40
2022-12-22T18:51:29.734Z,5.93
2022-12-22T18:53:57.243Z,6.45
2022-12-22T18:56:23.952Z,6.45
2022-12-22T18:58:50.764Z,5.60
2022-12-22T19:01:26.106Z,6.40
2022-12-22T19:03:57.403Z,6.97
2022-12-22T19:06:24.440Z,6.28
2022-12-22T19:08:52.993Z,6.85
2022-12-22T19:11:26.915Z,6.97
2022-12-22T19:13:53.481Z,7.13
2022-12-22T19:16:25.910Z,7.07
2022-12-22T19:18:52.748Z,7.70
2022-12-22T19:21:19.981Z,6.88
2022-12-22T19:23:46.857Z,6.63
2022-12-22T19:26:31.488Z,6.90
2022-12-22T19:29:01.444Z,6.65
2022-12-22T19:31:33.493Z,6.35
2022-12-22T19:34:04.298Z,6.65
2022-12-22T19:36:31.874Z,6.43
2022-12-22T19:39:04.687Z,7.18
2022-12-22T19:41:39.949Z,6.00
2022-12-22T19:44:17.039Z,6.63
2022-12-22T19:46:43.620Z,5.97
2022-12-22T19:49:36.387Z,6.63
2022-12-22T19:52:02.890Z,6.32
2022-12-22T19:54:29.678Z,6.65
2022-12-22T19:56:56.872Z,5.68
2022-12-22T19:59:39.146Z,5.80
2022-12-22T20:02:23.461Z,5.88
2022-12-22T20:04:51.190Z,5.40
2022-12-22T20:07:20.136Z,5.65
2022-12-22T20:09:47.385Z,5.43
2022-12-22T20:12:36.277Z,5.07
2022-12-22T20:15:13.475Z,6.07
2022-12-22T20:17:40.039Z,5.53
2022-12-22T20:20:07.309Z,5.55
2022-12-22T20:22:34.362Z,5.57
2022-12-22T20:25:01.319Z,6.15
2022-12-22T20:27:33.955Z,6.20
2022-12-22T20:30:01.045Z,7.22
2022-12-22T20:32:29.567Z,7.15
2022-12-22T20:34:56.371Z,6.93
2022-12-22T20:37:24.415Z,6.55
2022-12-22T20:39:50.966Z,8.50
2022-12-22T20:42:19.698Z,9.57
2022-12-22T20:45:03.987Z,7.72
2022-12-22T20:47:33.778Z,8.35
2022-12-22T20:50:00.691Z,8.82
2022-12-22T20:52:27.263Z,7.97
2022-12-22T20:54:53.785Z,8.65
2022-12-22T20:57:21.744Z,8.00
2022-12-22T20:59:53.973Z,8.20
2022-12-22T21:02:27.330Z,7.47
2022-12-22T21:04:54.123Z,7.97
2022-12-22T21:07:20.627Z,8.13
2022-12-22T21:09:47.156Z,8.40
2022-12-22T21:12:13.693Z,7.80
2022-12-22T21:14:40.248Z,7.50
2022-12-22T21:17:15.827Z,7.53
2022-12-22T21:19:42.495Z,7.35
2022-12-22T21:22:09.096Z,8.00
2022-12-22T21:24:35.873Z,7.50
2022-12-22T21:27:02.605Z,6.57
2022-12-22T21:29:29.845Z,7.22
2022-12-22T21:31:56.410Z,6.93
2022-12-22T21:34:22.967Z,6.88
2022-12-22T21:36:57.955Z,6.70
2022-12-22T21:39:39.475Z,7.55
2022-12-22T21:42:06.560Z,6.35
2022-12-22T21:44:35.091Z,6.70
2022-12-22T21:47:02.352Z,6.65
2022-12-22T21:49:31.960Z,6.70
2022-12-22T21:51:58.920Z,6.32
2022-12-22T21:54:26.388Z,5.50
2022-12-22T21:56:53.965Z,6.32
2022-12-22T21:59:21.714Z,5.45
2022-12-22T22:01:48.736Z,6.35
2022-12-22T22:04:15.569Z,5.78
2022-12-22T22:06:42.124Z,5.90
2022-12-22T22:09:08.664Z,6.60
2022-12-22T22:11:55.123Z,6.80
2022-12-22T22:14:22.032Z,6.95
2022-12-22T22:16:48.607Z,6.50
2022-12-22T22:19:15.172Z,6.60
2022-12-22T22:21:41.646Z,7.40
2022-12-22T22:24:08.194Z,8.30
2022-12-22T22:26:34.711Z,8.60
2022-12-22T22:29:01.234Z,8.00
2022-12-22T22:31:27.825Z,8.80
2022-12-22T22:33:54.592Z,8.48
2022-12-22T22:36:21.126Z,8.95
2022-12-22T22:38:51.046Z,8.43
2022-12-22T22:41:17.578Z,8.40
2022-12-22T22:43:44.082Z,7.97
2022-12-22T22:46:10.638Z,7.50
2022-12-22T22:48:37.375Z,7.75
2022-12-22T22:51:04.074Z,7.72
2022-12-22T22:53:30.929Z,8.50
2022-12-22T22:56:02.911Z,8.75
2022-12-22T22:58:29.773Z,8.60
2022-12-22T23:00:56.448Z,8.20
2022-12-22T23:03:23.272Z,8.93
2022-12-22T23:05:49.949Z,9.20
2022-12-22T23:08:16.497Z,9.02
2022-12-22T23:10:49.445Z,7.78
2022-12-22T23:13:16.030Z,7.63
2022-12-22T23:15:42.717Z,7.07
2022-12-22T23:18:09.314Z,6.82
2022-12-22T23:20:35.803Z,7.55
2022-12-22T23:23:03.528Z,7.82
2022-12-22T23:25:30.040Z,7.68
2022-12-22T23:27:56.597Z,6.53
2022-12-22T23:30:23.166Z,7.47
2022-12-22T23:32:49.903Z,7.65
2022-12-22T23:35:16.539Z,7.90
2022-12-22T23:37:43.025Z,7.35
2022-12-22T23:40:33.155Z,7.63
2022-12-22T23:42:57.296Z,7.68
2022-12-22T23:45:23.982Z,8.00
2022-12-22T23:47:50.514Z,9.27
2022-12-22T23:50:17.128Z,8.23
2022-12-22T23:52:49.039Z,9.95
2022-12-22T23:55:16.019Z,8.60
2022-12-22T23:57:42.607Z,9.65
